Time;durP1;ratioP1;P1;durP2;ratioP2;P2;SDS_P1;SDS_P2;PMS_P1;PMS_P2;Temp;Humidity;BMP_temperature;BMP_pressure;BME280_temperature;BME280_humidity;BME280_pressure;Samples;Min_cycle;Max_cycle;Signal;HPM_P1;HPM_P2
2023/06/16 00:01:03;;;;;;;4.30;3.35;;;;;;;;;;5018914;28;20425;-74
2023/06/16 00:03:35;;;;;;;5.68;3.80;;;;;;;;;;5019466;28;20053;-73
2023/06/16 00:06:13;;;;;;;7.07;5.20;;;;;;;;;;5017870;28;20041;-72
2023/06/16 00:08:58;;;;;;;6.00;4.13;;;;;;;;;;5019002;28;20119;-72
2023/06/16 00:11:28;;;;;;;5.85;3.45;;;;;;;;;;5018550;28;20080;-71
2023/06/16 00:13:55;;;;;;;5.00;3.85;;;;;;;;;;5020062;28;20049;-71
2023/06/16 00:16:20;;;;;;;6.68;4.13;;;;;;;;;;5022814;28;20057;-72
2023/06/16 00:18:52;;;;;;;7.35;3.40;;;;;;;;;;5023099;28;20056;-72
2023/06/16 00:21:35;;;;;;;3.85;3.50;;;;;;;;;;5022993;28;20144;-73
2023/06/16 00:24:01;;;;;;;7.53;3.83;;;;;;;;;;5021818;28;20136;-71
2023/06/16 00:26:27;;;;;;;7.38;3.47;;;;;;;;;;5022891;28;20418;-72
2023/06/16 00:28:52;;;;;;;7.68;4.05;;;;;;;;;;5022978;28;20057;-73
2023/06/16 00:31:18;;;;;;;4.75;3.92;;;;;;;;;;5022896;28;20052;-72
2023/06/16 00:33:43;;;;;;;7.85;4.07;;;;;;;;;;5004354;28;20046;-72
2023/06/16 00:36:09;;;;;;;4.70;4.20;;;;;;;;;;5022242;28;20131;-71
2023/06/16 00:38:34;;;;;;;4.72;4.32;;;;;;;;;;5022798;28;20506;-73
2023/06/16 00:41:01;;;;;;;5.88;4.80;;;;;;;;;;5023154;28;20076;-71
2023/06/16 00:43:26;;;;;;;5.93;4.88;;;;;;;;;;5022983;28;20045;-71
2023/06/16 00:45:52;;;;;;;7.75;4.35;;;;;;;;;;5029945;28;20050;-73
2023/06/16 00:48:18;;;;;;;5.88;4.75;;;;;;;;;;5021876;28;20045;-71
2023/06/16 00:50:44;;;;;;;6.25;4.15;;;;;;;;;;5022624;28;20560;-71
2023/06/16 00:53:10;;;;;;;6.13;4.35;;;;;;;;;;5022529;28;20056;-73
2023/06/16 00:55:36;;;;;;;5.38;4.85;;;;;;;;;;5020360;28;20053;-73
2023/06/16 00:58:03;;;;;;;5.57;4.75;;;;;;;;;;5003087;28;20623;-73
2023/06/16 01:00:32;;;;;;;7.15;5.05;;;;;;;;;;5020430;28;20053;-73
2023/06/16 01:02:57;;;;;;;7.63;5.07;;;;;;;;;;5022398;28;20052;-73
2023/06/16 01:05:24;;;;;;;6.72;5.32;;;;;;;;;;5022868;28;20030;-73
2023/06/16 01:08:14;;;;;;;6.38;5.20;;;;;;;;;;5018904;28;20049;-73
2023/06/16 01:10:48;;;;;;;7.90;5.32;;;;;;;;;;5033146;28;20045;-73
2023/06/16 01:13:22;;;;;;;5.63;5.05;;;;;;;;;;5018830;28;20045;-73
2023/06/16 01:15:48;;;;;;;6.93;5.30;;;;;;;;;;5019398;28;20950;-73
2023/06/16 01:18:17;;;;;;;8.80;5.32;;;;;;;;;;5015902;28;20037;-72
2023/06/16 01:20:55;;;;;;;5.70;5.13;;;;;;;;;;5003911;28;20573;-71
2023/06/16 01:23:52;;;;;;;7.13;4.93;;;;;;;;;;5031401;28;20071;-71
2023/06/16 01:26:19;;;;;;;8.43;5.43;;;;;;;;;;5020283;28;20053;-71
2023/06/16 01:28:46;;;;;;;6.38;4.85;;;;;;;;;;5022145;28;20097;-71
2023/06/16 01:31:15;;;;;;;5.95;5.35;;;;;;;;;;5021486;28;20526;-72
2023/06/16 01:34:02;;;;;;;6.57;5.32;;;;;;;;;;5020199;28;20045;-71
2023/06/16 01:36:31;;;;;;;5.75;4.88;;;;;;;;;;5020467;28;20045;-72
2023/06/16 01:39:00;;;;;;;5.90;5.18;;;;;;;;;;5014905;28;20085;-72
2023/06/16 01:41:26;;;;;;;7.85;4.90;;;;;;;;;;5021035;28;20046;-71
2023/06/16 01:43:52;;;;;;;6.60;4.90;;;;;;;;;;5022098;28;20087;-70
2023/06/16 01:46:19;;;;;;;8.88;4.78;;;;;;;;;;5021000;28;20072;-71
2023/06/16 01:48:46;;;;;;;6.90;4.60;;;;;;;;;;5003513;28;20053;-70
2023/06/16 01:51:12;;;;;;;6.78;5.07;;;;;;;;;;5021813;28;20045;-70
2023/06/16 01:53:38;;;;;;;9.70;4.95;;;;;;;;;;5021099;28;20095;-70
2023/06/16 01:56:04;;;;;;;7.68;5.93;;;;;;;;;;5021567;28;20309;-74
2023/06/16 01:58:30;;;;;;;6.20;5.10;;;;;;;;;;5031644;28;20457;-74
2023/06/16 02:01:15;;;;;;;6.47;4.97;;;;;;;;;;5004062;28;20179;-74
2023/06/16 02:03:46;;;;;;;6.50;5.00;;;;;;;;;;5020140;28;20045;-74
2023/06/16 02:06:18;;;;;;;6.68;4.70;;;;;;;;;;4992759;28;20092;-74
2023/06/16 02:08:46;;;;;;;6.60;4.90;;;;;;;;;;5011730;28;20568;-73
2023/06/16 02:11:14;;;;;;;6.60;5.00;;;;;;;;;;5003536;28;20049;-73
2023/06/16 02:13:39;;;;;;;5.32;4.53;;;;;;;;;;5020614;28;20506;-74
2023/06/16 02:16:05;;;;;;;7.78;5.22;;;;;;;;;;5018404;28;20087;-74
2023/06/16 02:18:32;;;;;;;7.50;5.80;;;;;;;;;;5020282;28;20223;-74
2023/06/16 02:20:58;;;;;;;6.70;6.00;;;;;;;;;;5019998;28;20133;-74
2023/06/16 02:23:30;;;;;;;9.95;5.55;;;;;;;;;;5021685;28;20141;-74
2023/06/16 02:25:55;;;;;;;6.28;5.43;;;;;;;;;;5019455;28;20049;-73
2023/06/16 02:28:21;;;;;;;7.32;5.50;;;;;;;;;;5002618;28;20064;-74
2023/06/16 02:30:46;;;;;;;7.20;5.60;;;;;;;;;;5003371;28;20053;-72
2023/06/16 02:33:15;;;;;;;6.05;5.45;;;;;;;;;;5019672;28;20049;-73
2023/06/16 02:35:41;;;;;;;6.20;5.15;;;;;;;;;;5020451;28;20045;-73
2023/06/16 02:38:07;;;;;;;5.80;5.13;;;;;;;;;;5019022;28;20324;-71
2023/06/16 02:40:33;;;;;;;6.65;5.82;;;;;;;;;;5021063;28;20056;-73
2023/06/16 02:42:59;;;;;;;7.32;5.63;;;;;;;;;;5015676;28;20076;-71
2023/06/16 02:45:24;;;;;;;10.05;6.03;;;;;;;;;;5003312;28;20072;-72
2023/06/16 02:47:51;;;;;;;7.82;5.55;;;;;;;;;;5018335;28;20041;-73
2023/06/16 02:50:16;;;;;;;6.32;5.32;;;;;;;;;;5015640;28;20099;-72
2023/06/16 02:52:43;;;;;;;6.00;5.38;;;;;;;;;;5035408;28;20052;-73
2023/06/16 02:55:13;;;;;;;6.78;5.50;;;;;;;;;;5019131;28;20045;-74
2023/06/16 02:57:43;;;;;;;5.35;4.85;;;;;;;;;;5018825;28;20090;-72
2023/06/16 03:00:10;;;;;;;8.68;5.22;;;;;;;;;;5017365;28;20080;-73
2023/06/16 03:02:43;;;;;;;5.90;5.20;;;;;;;;;;5035709;28;20132;-73
2023/06/16 03:05:09;;;;;;;7.35;5.20;;;;;;;;;;5018779;28;20152;-71
2023/06/16 03:07:35;;;;;;;5.10;4.60;;;;;;;;;;5017724;28;20132;-74
2023/06/16 03:10:07;;;;;;;7.75;5.85;;;;;;;;;;5016506;28;20041;-73
2023/06/16 03:12:43;;;;;;;7.28;5.32;;;;;;;;;;5018876;28;20056;-73
2023/06/16 03:15:09;;;;;;;8.18;5.15;;;;;;;;;;5018348;28;20053;-70
2023/06/16 03:17:35;;;;;;;5.20;4.70;;;;;;;;;;5034981;28;20052;-71
2023/06/16 03:20:01;;;;;;;7.35;5.00;;;;;;;;;;5017320;28;20107;-73
2023/06/16 03:22:35;;;;;;;8.43;4.90;;;;;;;;;;5018476;28;20057;-72
2023/06/16 03:25:02;;;;;;;5.50;4.95;;;;;;;;;;5018835;28;20206;-73
2023/06/16 03:27:31;;;;;;;10.40;5.00;;;;;;;;;;5019057;28;20129;-71
2023/06/16 03:30:01;;;;;;;9.43;5.45;;;;;;;;;;5002261;28;20057;-73
2023/06/16 03:32:37;;;;;;;5.30;4.78;;;;;;;;;;5016367;28;20120;-73
2023/06/16 03:35:04;;;;;;;6.22;5.03;;;;;;;;;;5002674;28;20426;-73
2023/06/16 03:37:31;;;;;;;7.35;4.68;;;;;;;;;;5034836;28;20045;-72
2023/06/16 03:39:57;;;;;;;4.88;4.43;;;;;;;;;;5003763;28;20183;-76
2023/06/16 03:42:23;;;;;;;7.90;4.80;;;;;;;;;;5019183;28;20041;-76
2023/06/16 03:44:50;;;;;;;7.28;5.13;;;;;;;;;;5014875;28;21071;-74
2023/06/16 03:47:16;;;;;;;6.28;4.70;;;;;;;;;;5017006;28;20095;-76
2023/06/16 03:49:42;;;;;;;5.47;4.70;;;;;;;;;;5012842;28;20045;-76
2023/06/16 03:52:09;;;;;;;7.53;4.78;;;;;;;;;;5007721;28;20046;-72
2023/06/16 03:54:36;;;;;;;6.55;4.82;;;;;;;;;;5022464;28;20068;-75
2023/06/16 03:57:02;;;;;;;5.68;4.70;;;;;;;;;;5006342;28;20042;-72
2023/06/16 03:59:29;;;;;;;5.93;4.95;;;;;;;;;;5022678;28;20052;-74
2023/06/16 04:01:57;;;;;;;5.78;4.95;;;;;;;;;;5019235;28;20049;-74
2023/06/16 04:04:27;;;;;;;5.63;5.00;;;;;;;;;;5004242;28;20049;-75
2023/06/16 04:06:53;;;;;;;7.03;4.93;;;;;;;;;;5008831;28;20069;-75
2023/06/16 04:09:20;;;;;;;6.35;4.90;;;;;;;;;;5028857;28;20103;-73
2023/06/16 04:11:45;;;;;;;6.30;5.15;;;;;;;;;;5029519;28;20033;-78
2023/06/16 04:14:12;;;;;;;5.22;4.63;;;;;;;;;;5027274;28;20079;-73
2023/06/16 04:16:40;;;;;;;5.68;4.78;;;;;;;;;;5025536;28;20176;-77
2023/06/16 04:19:06;;;;;;;8.40;5.20;;;;;;;;;;5024778;28;20052;-75
2023/06/16 04:21:33;;;;;;;9.50;4.60;;;;;;;;;;5025520;28;20418;-72
2023/06/16 04:24:01;;;;;;;11.15;4.55;;;;;;;;;;5024369;28;20045;-75
2023/06/16 04:26:28;;;;;;;8.25;4.93;;;;;;;;;;5023461;28;22164;-72
2023/06/16 04:28:55;;;;;;;4.95;4.43;;;;;;;;;;5024924;28;20045;-72
2023/06/16 04:31:28;;;;;;;4.90;4.40;;;;;;;;;;5025068;28;20045;-75
2023/06/16 04:33:56;;;;;;;26.88;5.60;;;;;;;;;;5034044;28;20041;-72
2023/06/16 04:36:22;;;;;;;8.13;4.38;;;;;;;;;;5044115;28;20068;-73
2023/06/16 04:38:48;;;;;;;6.47;4.70;;;;;;;;;;5043565;28;20080;-74
2023/06/16 04:41:14;;;;;;;5.68;4.72;;;;;;;;;;5028383;28;20132;-78
2023/06/16 04:43:39;;;;;;;10.68;4.57;;;;;;;;;;5027383;28;20532;-72
2023/06/16 04:46:05;;;;;;;8.93;4.97;;;;;;;;;;5027374;28;20080;-72
2023/06/16 04:48:31;;;;;;;5.63;4.57;;;;;;;;;;5026370;28;20156;-75
2023/06/16 04:50:57;;;;;;;5.68;4.25;;;;;;;;;;5028239;28;20060;-73
2023/06/16 04:53:23;;;;;;;5.63;4.00;;;;;;;;;;5028611;28;20054;-73
2023/06/16 04:55:49;;;;;;;4.90;4.40;;;;;;;;;;5027742;28;20041;-75
2023/06/16 04:58:15;;;;;;;5.20;4.70;;;;;;;;;;5034512;28;20060;-72
2023/06/16 05:00:40;;;;;;;5.30;4.25;;;;;;;;;;5023444;28;20057;-74
2023/06/16 05:03:06;;;;;;;5.13;4.43;;;;;;;;;;5031558;28;21124;-71
2023/06/16 05:05:32;;;;;;;4.30;3.90;;;;;;;;;;5023298;28;20048;-74
2023/06/16 05:07:58;;;;;;;6.03;4.53;;;;;;;;;;5038226;28;20050;-73
2023/06/16 05:10:24;;;;;;;5.18;3.90;;;;;;;;;;5011050;28;20049;-75
2023/06/16 05:12:51;;;;;;;14.70;4.18;;;;;;;;;;5036407;28;20060;-71
2023/06/16 05:15:16;;;;;;;5.05;3.80;;;;;;;;;;5020972;28;20037;-74
2023/06/16 05:17:43;;;;;;;16.08;4.32;;;;;;;;;;5036651;28;20510;-72
2023/06/16 05:20:09;;;;;;;4.65;3.72;;;;;;;;;;5022833;28;20056;-74
2023/06/16 05:22:37;;;;;;;4.60;4.18;;;;;;;;;;5020684;28;20243;-74
2023/06/16 05:25:03;;;;;;;5.15;4.32;;;;;;;;;;5005559;28;20121;-73
2023/06/16 05:27:29;;;;;;;6.50;3.65;;;;;;;;;;5022140;28;20037;-75
2023/06/16 05:29:55;;;;;;;3.90;3.47;;;;;;;;;;5020570;28;20049;-71
2023/06/16 05:32:21;;;;;;;5.15;3.78;;;;;;;;;;5019407;28;20053;-71
2023/06/16 05:34:50;;;;;;;4.80;3.60;;;;;;;;;;5021429;28;20038;-72
2023/06/16 05:37:17;;;;;;;6.53;4.10;;;;;;;;;;5005259;28;20192;-72
2023/06/16 05:39:47;;;;;;;6.15;3.58;;;;;;;;;;5004117;28;20141;-70
2023/06/16 05:42:14;;;;;;;10.38;4.13;;;;;;;;;;5019460;28;20103;-75
2023/06/16 05:44:44;;;;;;;4.75;3.95;;;;;;;;;;5019811;28;20076;-70
2023/06/16 05:47:11;;;;;;;7.28;4.28;;;;;;;;;;5020438;28;21077;-75
2023/06/16 05:49:37;;;;;;;6.90;4.57;;;;;;;;;;5022035;28;20163;-73
2023/06/16 05:52:05;;;;;;;7.45;3.97;;;;;;;;;;5036657;28;20518;-73
2023/06/16 05:54:32;;;;;;;4.72;4.05;;;;;;;;;;5036054;28;20045;-74
2023/06/16 05:56:59;;;;;;;4.82;4.10;;;;;;;;;;5019827;28;20045;-74
2023/06/16 05:59:26;;;;;;;7.18;3.97;;;;;;;;;;5024893;28;20147;-72
2023/06/16 06:01:52;;;;;;;5.20;4.13;;;;;;;;;;5019346;28;20049;-73
2023/06/16 06:04:26;;;;;;;5.25;3.60;;;;;;;;;;5018870;28;20520;-74
2023/06/16 06:06:52;;;;;;;5.18;4.03;;;;;;;;;;5023251;28;20103;-71
2023/06/16 06:09:17;;;;;;;9.48;3.58;;;;;;;;;;5030676;28;20049;-74
2023/06/16 06:11:43;;;;;;;3.92;3.53;;;;;;;;;;5035287;28;20045;-77
2023/06/16 06:14:11;;;;;;;5.97;3.65;;;;;;;;;;5034969;28;20627;-73
2023/06/16 06:16:38;;;;;;;4.28;3.53;;;;;;;;;;5019058;28;20136;-72
2023/06/16 06:19:04;;;;;;;5.53;3.53;;;;;;;;;;5018955;28;20477;-73
2023/06/16 06:21:30;;;;;;;4.60;3.92;;;;;;;;;;5036443;28;20144;-72
2023/06/16 06:23:56;;;;;;;7.05;3.72;;;;;;;;;;5036106;28;20457;-73
2023/06/16 06:26:21;;;;;;;5.90;3.55;;;;;;;;;;5020794;28;20506;-72
2023/06/16 06:28:47;;;;;;;5.15;3.78;;;;;;;;;;5018651;28;20049;-70
2023/06/16 06:31:13;;;;;;;6.75;3.97;;;;;;;;;;5036084;28;20112;-74
2023/06/16 06:33:39;;;;;;;6.28;3.72;;;;;;;;;;5036012;28;20030;-71
2023/06/16 06:36:05;;;;;;;6.15;3.63;;;;;;;;;;5021748;28;20041;-72
2023/06/16 06:38:30;;;;;;;4.88;3.67;;;;;;;;;;5034807;28;21194;-72
2023/06/16 06:40:56;;;;;;;4.18;3.45;;;;;;;;;;5019591;28;20064;-72
2023/06/16 06:43:22;;;;;;;6.88;3.47;;;;;;;;;;5019036;28;20612;-72
2023/06/16 06:45:53;;;;;;;4.73;3.47;;;;;;;;;;5035179;28;20441;-73
2023/06/16 06:48:20;;;;;;;4.70;3.80;;;;;;;;;;5034366;28;20122;-72
2023/06/16 06:50:48;;;;;;;4.95;3.88;;;;;;;;;;5034702;28;20045;-72
2023/06/16 06:53:14;;;;;;;5.22;4.10;;;;;;;;;;5020293;28;20402;-72
2023/06/16 06:55:39;;;;;;;5.90;4.00;;;;;;;;;;5020460;28;20045;-72
2023/06/16 06:58:05;;;;;;;4.63;3.33;;;;;;;;;;5019333;28;20106;-73
2023/06/16 07:00:30;;;;;;;3.92;3.47;;;;;;;;;;5019705;28;20037;-71
2023/06/16 07:02:56;;;;;;;3.85;3.42;;;;;;;;;;5020838;28;20426;-70
2023/06/16 07:05:21;;;;;;;5.55;3.75;;;;;;;;;;5019769;28;20533;-74
2023/06/16 07:07:46;;;;;;;5.13;3.38;;;;;;;;;;5020258;28;20045;-71
2023/06/16 07:10:12;;;;;;;7.25;4.35;;;;;;;;;;5019598;28;20056;-73
2023/06/16 07:12:37;;;;;;;5.45;3.97;;;;;;;;;;5020022;28;20041;-75
2023/06/16 07:15:03;;;;;;;5.55;4.05;;;;;;;;;;5020201;28;20053;-76
2023/06/16 07:17:30;;;;;;;5.47;3.45;;;;;;;;;;5020127;28;20574;-73
2023/06/16 07:19:56;;;;;;;10.27;4.03;;;;;;;;;;5018939;28;20049;-74
2023/06/16 07:22:21;;;;;;;8.90;4.35;;;;;;;;;;5018827;28;20122;-74
2023/06/16 07:24:47;;;;;;;7.13;4.05;;;;;;;;;;5019410;28;20044;-72
2023/06/16 07:27:12;;;;;;;4.68;3.88;;;;;;;;;;5020216;28;20111;-72
2023/06/16 07:29:38;;;;;;;4.90;3.75;;;;;;;;;;5034773;28;20041;-72
2023/06/16 07:32:04;;;;;;;12.35;3.47;;;;;;;;;;5019369;28;20410;-72
2023/06/16 07:34:30;;;;;;;5.50;3.70;;;;;;;;;;5019793;28;20489;-72
2023/06/16 07:36:55;;;;;;;5.25;3.75;;;;;;;;;;5020085;28;20736;-71
2023/06/16 07:39:21;;;;;;;6.80;3.20;;;;;;;;;;5018298;28;20449;-74
2023/06/16 07:41:47;;;;;;;4.68;3.38;;;;;;;;;;5019845;28;20033;-75
2023/06/16 07:44:12;;;;;;;4.50;3.55;;;;;;;;;;5019248;28;20067;-73
2023/06/16 07:46:39;;;;;;;4.13;3.30;;;;;;;;;;5018616;28;20667;-72
2023/06/16 07:49:05;;;;;;;4.53;3.50;;;;;;;;;;5019563;28;20549;-73
2023/06/16 07:51:30;;;;;;;4.50;3.33;;;;;;;;;;5019891;28;20132;-72
2023/06/16 07:53:56;;;;;;;6.10;3.50;;;;;;;;;;5020070;28;20049;-72
2023/06/16 07:56:21;;;;;;;5.40;3.35;;;;;;;;;;5018939;28;20130;-72
2023/06/16 07:58:46;;;;;;;3.95;3.30;;;;;;;;;;5020153;28;20046;-73
2023/06/16 08:01:12;;;;;;;4.28;3.38;;;;;;;;;;5019594;28;20059;-71
2023/06/16 08:03:37;;;;;;;5.38;3.40;;;;;;;;;;5019852;28;20124;-73
2023/06/16 08:06:04;;;;;;;4.45;3.72;;;;;;;;;;5021790;28;20580;-71
2023/06/16 08:08:32;;;;;;;4.40;3.45;;;;;;;;;;5018494;28;20057;-74
2023/06/16 08:10:58;;;;;;;6.70;3.28;;;;;;;;;;5019135;28;20091;-76
2023/06/16 08:13:24;;;;;;;4.90;3.58;;;;;;;;;;5020117;28;20059;-73
2023/06/16 08:15:50;;;;;;;8.63;3.60;;;;;;;;;;5019271;28;20060;-74
2023/06/16 08:18:17;;;;;;;5.07;3.50;;;;;;;;;;5018072;28;20046;-74
2023/06/16 08:20:47;;;;;;;5.43;3.25;;;;;;;;;;5018267;28;20123;-74
2023/06/16 08:23:13;;;;;;;3.33;3.03;;;;;;;;;;5018918;28;20465;-74
2023/06/16 08:25:39;;;;;;;6.40;3.55;;;;;;;;;;5020191;28;20045;-75
2023/06/16 08:28:07;;;;;;;4.40;2.97;;;;;;;;;;5019550;28;20053;-73
2023/06/16 08:30:33;;;;;;;5.78;2.83;;;;;;;;;;5018302;28;20037;-75
2023/06/16 08:32:58;;;;;;;3.78;3.20;;;;;;;;;;5018005;28;20362;-73
2023/06/16 08:35:24;;;;;;;4.72;3.10;;;;;;;;;;5020989;28;20525;-72
2023/06/16 08:37:50;;;;;;;6.93;3.75;;;;;;;;;;5023128;28;20037;-76
2023/06/16 08:40:15;;;;;;;5.50;3.47;;;;;;;;;;5019526;28;20068;-72
2023/06/16 08:42:42;;;;;;;5.18;3.33;;;;;;;;;;5037993;28;20140;-72
2023/06/16 08:45:08;;;;;;;5.38;3.45;;;;;;;;;;5023209;28;20041;-72
2023/06/16 08:47:35;;;;;;;4.65;3.47;;;;;;;;;;5023079;28;20037;-73
2023/06/16 08:50:00;;;;;;;4.97;3.08;;;;;;;;;;5021486;28;20124;-72
2023/06/16 08:52:28;;;;;;;8.15;3.20;;;;;;;;;;5021151;28;20068;-71
2023/06/16 08:55:01;;;;;;;6.80;3.42;;;;;;;;;;5023508;28;20053;-72
2023/06/16 08:57:30;;;;;;;8.32;3.80;;;;;;;;;;5022777;28;20053;-70
2023/06/16 08:59:57;;;;;;;4.03;3.03;;;;;;;;;;5022514;28;20049;-71
2023/06/16 09:02:24;;;;;;;5.00;3.13;;;;;;;;;;5020737;28;20057;-71
2023/06/16 09:04:50;;;;;;;3.53;2.95;;;;;;;;;;5022536;28;20406;-71
2023/06/16 09:07:19;;;;;;;3.92;3.00;;;;;;;;;;5022397;28;20124;-71
2023/06/16 09:09:49;;;;;;;7.22;2.97;;;;;;;;;;5021576;28;20050;-73
2023/06/16 09:12:14;;;;;;;5.30;2.97;;;;;;;;;;5018211;28;20068;-73
2023/06/16 09:14:42;;;;;;;3.97;3.20;;;;;;;;;;5021780;28;20140;-74
2023/06/16 09:17:09;;;;;;;6.60;3.10;;;;;;;;;;5022087;28;20055;-73
2023/06/16 09:19:46;;;;;;;7.07;3.03;;;;;;;;;;5022654;28;20053;-74
2023/06/16 09:22:16;;;;;;;3.58;2.78;;;;;;;;;;5022758;28;20049;-72
2023/06/16 09:24:42;;;;;;;6.07;3.13;;;;;;;;;;5021516;28;20049;-71
2023/06/16 09:27:08;;;;;;;4.47;2.75;;;;;;;;;;5020930;28;20079;-71
2023/06/16 09:29:33;;;;;;;6.20;2.90;;;;;;;;;;5037087;28;20136;-72
2023/06/16 09:32:08;;;;;;;3.42;2.92;;;;;;;;;;5022271;28;20041;-72
2023/06/16 09:34:35;;;;;;;6.18;2.72;;;;;;;;;;5020824;28;20037;-72
2023/06/16 09:37:04;;;;;;;8.85;2.67;;;;;;;;;;5022054;28;20052;-72
2023/06/16 09:39:29;;;;;;;6.45;2.47;;;;;;;;;;5021444;28;20053;-69
2023/06/16 09:41:56;;;;;;;4.25;2.63;;;;;;;;;;5020102;28;20418;-70
2023/06/16 09:44:23;;;;;;;6.25;2.72;;;;;;;;;;5021557;28;20384;-72
2023/06/16 09:46:50;;;;;;;6.47;3.20;;;;;;;;;;5019624;28;20157;-69
2023/06/16 09:49:24;;;;;;;5.90;2.70;;;;;;;;;;5021235;28;20148;-71
2023/06/16 09:51:55;;;;;;;4.60;2.80;;;;;;;;;;5021526;28;20061;-68
2023/06/16 09:54:22;;;;;;;7.03;2.88;;;;;;;;;;5021247;28;20128;-69
2023/06/16 09:56:49;;;;;;;3.28;2.60;;;;;;;;;;5019350;28;20057;-68
2023/06/16 09:59:15;;;;;;;5.35;3.13;;;;;;;;;;5020921;28;20049;-73
2023/06/16 10:01:43;;;;;;;4.70;2.90;;;;;;;;;;5021736;28;20038;-71
2023/06/16 10:04:10;;;;;;;3.78;2.70;;;;;;;;;;5019348;28;20049;-71
2023/06/16 10:06:47;;;;;;;6.97;3.28;;;;;;;;;;5021536;28;20124;-73
2023/06/16 10:09:16;;;;;;;7.95;2.75;;;;;;;;;;5020081;28;20052;-71
2023/06/16 10:11:41;;;;;;;9.60;3.60;;;;;;;;;;5021561;28;20048;-71
2023/06/16 10:14:08;;;;;;;12.30;3.30;;;;;;;;;;5019349;28;20041;-71
2023/06/16 10:16:36;;;;;;;11.63;3.53;;;;;;;;;;5021299;28;20116;-71
2023/06/16 10:19:04;;;;;;;6.57;3.60;;;;;;;;;;5020159;28;20073;-71
2023/06/16 10:21:31;;;;;;;9.38;3.53;;;;;;;;;;5019182;28;20152;-72
2023/06/16 10:23:57;;;;;;;5.28;3.17;;;;;;;;;;5021021;28;20107;-75
2023/06/16 10:26:22;;;;;;;5.97;3.30;;;;;;;;;;5020608;28;20049;-72
2023/06/16 10:28:48;;;;;;;8.80;3.35;;;;;;;;;;5020597;28;20030;-73
2023/06/16 10:31:14;;;;;;;5.47;3.40;;;;;;;;;;5019788;28;20073;-71
2023/06/16 10:33:57;;;;;;;8.25;3.15;;;;;;;;;;5019574;28;20132;-71
2023/06/16 10:36:36;;;;;;;6.68;3.50;;;;;;;;;;5020377;28;20049;-71
2023/06/16 10:39:15;;;;;;;6.35;3.30;;;;;;;;;;5020529;28;20565;-71
2023/06/16 10:41:50;;;;;;;4.22;3.05;;;;;;;;;;5019289;28;20672;-71
2023/06/16 10:44:25;;;;;;;5.80;3.25;;;;;;;;;;5018555;28;20907;-74
2023/06/16 10:47:09;;;;;;;7.60;4.05;;;;;;;;;;5019321;28;20501;-71
2023/06/16 10:49:49;;;;;;;15.15;4.55;;;;;;;;;;5020483;28;20056;-71
2023/06/16 10:52:16;;;;;;;6.20;4.18;;;;;;;;;;5018477;28;20114;-70
2023/06/16 10:54:44;;;;;;;7.10;3.80;;;;;;;;;;5020645;28;20042;-70
2023/06/16 10:57:12;;;;;;;8.77;4.35;;;;;;;;;;5020789;28;20049;-71
2023/06/16 10:59:56;;;;;;;4.72;4.05;;;;;;;;;;5018845;28;20059;-74
2023/06/16 11:02:33;;;;;;;12.73;3.80;;;;;;;;;;5016588;28;20041;-71
2023/06/16 11:05:08;;;;;;;14.30;4.45;;;;;;;;;;5018658;28;20049;-71
2023/06/16 11:08:11;;;;;;;4.47;3.65;;;;;;;;;;5020098;28;20056;-70
2023/06/16 11:11:04;;;;;;;6.90;3.70;;;;;;;;;;5034107;28;20057;-71
2023/06/16 11:13:32;;;;;;;4.15;3.00;;;;;;;;;;5019389;28;20057;-71
2023/06/16 11:15:59;;;;;;;8.48;3.70;;;;;;;;;;5020036;28;20049;-73
2023/06/16 11:18:26;;;;;;;4.15;3.40;;;;;;;;;;5019247;28;20055;-71
2023/06/16 11:20:59;;;;;;;8.15;3.90;;;;;;;;;;5020019;28;20049;-72
2023/06/16 11:23:25;;;;;;;6.47;3.30;;;;;;;;;;5019783;28;20670;-72
2023/06/16 11:25:51;;;;;;;5.38;4.05;;;;;;;;;;5019312;28;20124;-71
2023/06/16 11:28:21;;;;;;;8.30;4.65;;;;;;;;;;5019170;28;20060;-73
2023/06/16 11:30:47;;;;;;;6.25;3.42;;;;;;;;;;5019723;28;20045;-73
2023/06/16 11:33:16;;;;;;;4.45;2.70;;;;;;;;;;5017783;28;20077;-72
2023/06/16 11:35:42;;;;;;;3.83;2.90;;;;;;;;;;5018698;28;20406;-71
2023/06/16 11:38:07;;;;;;;4.28;3.30;;;;;;;;;;5017203;28;20038;-72
2023/06/16 11:40:33;;;;;;;3.95;3.20;;;;;;;;;;5017031;28;20053;-73
2023/06/16 11:43:08;;;;;;;6.32;3.28;;;;;;;;;;5018589;28;20107;-73
2023/06/16 11:45:38;;;;;;;4.43;3.30;;;;;;;;;;5019197;28;20056;-72
2023/06/16 11:48:06;;;;;;;8.88;3.47;;;;;;;;;;5017946;28;20053;-76
2023/06/16 11:50:33;;;;;;;5.63;3.20;;;;;;;;;;5018650;28;20053;-72
2023/06/16 11:52:58;;;;;;;5.90;3.08;;;;;;;;;;5018117;28;20514;-74
2023/06/16 11:55:24;;;;;;;6.68;3.70;;;;;;;;;;5017162;28;20049;-71
2023/06/16 11:57:50;;;;;;;6.80;5.03;;;;;;;;;;5017994;28;20049;-76
2023/06/16 12:00:17;;;;;;;5.85;4.47;;;;;;;;;;5016870;28;20049;-73
2023/06/16 12:02:46;;;;;;;9.38;4.35;;;;;;;;;;5017398;28;20401;-71
2023/06/16 12:05:22;;;;;;;9.45;4.68;;;;;;;;;;5016420;28;20049;-75
2023/06/16 12:07:48;;;;;;;5.53;4.80;;;;;;;;;;5019508;28;20046;-71
2023/06/16 12:10:15;;;;;;;5.20;4.20;;;;;;;;;;5017693;28;20134;-75
2023/06/16 12:12:45;;;;;;;9.68;4.50;;;;;;;;;;5022505;28;20052;-72
2023/06/16 12:15:21;;;;;;;7.05;4.22;;;;;;;;;;5023093;28;20052;-73
2023/06/16 12:17:47;;;;;;;4.47;3.60;;;;;;;;;;5023349;28;20041;-72
2023/06/16 12:20:15;;;;;;;5.80;3.85;;;;;;;;;;5020413;28;20054;-72
2023/06/16 12:22:41;;;;;;;4.03;3.58;;;;;;;;;;5023568;28;20060;-73
2023/06/16 12:25:13;;;;;;;7.38;4.45;;;;;;;;;;5022811;28;20441;-73
2023/06/16 12:27:45;;;;;;;7.30;4.05;;;;;;;;;;5022694;28;20077;-74
2023/06/16 12:30:11;;;;;;;7.03;4.40;;;;;;;;;;5037144;28;20527;-72
2023/06/16 12:32:37;;;;;;;7.50;4.55;;;;;;;;;;5022962;28;20033;-71
2023/06/16 12:35:04;;;;;;;5.93;4.40;;;;;;;;;;5023143;28;20423;-73
2023/06/16 12:37:30;;;;;;;8.55;4.85;;;;;;;;;;5005246;28;20111;-71
2023/06/16 12:40:06;;;;;;;5.10;4.05;;;;;;;;;;5021801;28;20046;-73
2023/06/16 12:42:32;;;;;;;6.78;4.70;;;;;;;;;;5019354;28;20049;-75
2023/06/16 12:45:02;;;;;;;7.35;4.78;;;;;;;;;;5022223;28;20049;-74
2023/06/16 12:47:32;;;;;;;9.38;4.45;;;;;;;;;;5022590;28;20474;-73
2023/06/16 12:49:59;;;;;;;8.95;4.30;;;;;;;;;;5020919;28;20099;-73
2023/06/16 12:52:26;;;;;;;5.35;4.35;;;;;;;;;;5020136;28;22128;-74
2023/06/16 12:54:53;;;;;;;7.35;4.60;;;;;;;;;;5021248;28;20045;-74
2023/06/16 12:57:21;;;;;;;5.35;4.38;;;;;;;;;;5021343;28;20635;-74
2023/06/16 12:59:46;;;;;;;9.40;5.03;;;;;;;;;;5020740;28;20049;-74
2023/06/16 13:02:12;;;;;;;6.38;4.95;;;;;;;;;;5021465;28;20046;-74
2023/06/16 13:04:38;;;;;;;6.70;4.68;;;;;;;;;;5021503;28;20060;-73
2023/06/16 13:07:04;;;;;;;5.85;4.72;;;;;;;;;;5021178;28;20052;-73
2023/06/16 13:09:29;;;;;;;6.43;5.05;;;;;;;;;;5020753;28;20132;-75
2023/06/16 13:11:57;;;;;;;6.13;4.63;;;;;;;;;;5025881;28;20108;-73
2023/06/16 13:14:24;;;;;;;6.40;5.28;;;;;;;;;;5026979;28;20052;-77
2023/06/16 13:16:49;;;;;;;7.45;5.25;;;;;;;;;;5023340;28;20077;-74
2023/06/16 13:19:15;;;;;;;7.03;4.35;;;;;;;;;;5024046;28;20128;-73
2023/06/16 13:21:41;;;;;;;7.70;4.38;;;;;;;;;;5020971;28;20076;-72
2023/06/16 13:24:07;;;;;;;5.90;4.70;;;;;;;;;;5021042;28;20053;-74
2023/06/16 13:26:32;;;;;;;9.10;4.85;;;;;;;;;;5019742;28;20049;-74
2023/06/16 13:28:58;;;;;;;5.32;4.40;;;;;;;;;;5003093;28;20057;-74
2023/06/16 13:31:23;;;;;;;6.18;4.50;;;;;;;;;;5020014;28;20042;-75
2023/06/16 13:33:49;;;;;;;8.75;5.07;;;;;;;;;;5021477;28;20045;-75
2023/06/16 13:36:18;;;;;;;7.10;4.30;;;;;;;;;;5020914;28;20516;-73
2023/06/16 13:38:48;;;;;;;5.85;4.70;;;;;;;;;;5019217;28;20041;-73
2023/06/16 13:41:14;;;;;;;7.68;4.45;;;;;;;;;;5021829;28;20414;-74
2023/06/16 13:43:44;;;;;;;9.70;4.70;;;;;;;;;;5013791;28;20521;-74
2023/06/16 13:46:10;;;;;;;7.13;4.50;;;;;;;;;;5017968;28;20052;-72
2023/06/16 13:48:36;;;;;;;10.40;4.65;;;;;;;;;;5017913;28;20048;-74
2023/06/16 13:51:02;;;;;;;6.15;5.20;;;;;;;;;;5019361;28;20057;-74
2023/06/16 13:53:28;;;;;;;6.53;3.95;;;;;;;;;;5008506;28;20068;-73
2023/06/16 13:55:54;;;;;;;5.93;4.45;;;;;;;;;;5018104;28;20503;-73
2023/06/16 13:58:20;;;;;;;7.32;4.32;;;;;;;;;;5016356;28;20045;-73
2023/06/16 14:00:46;;;;;;;7.32;4.88;;;;;;;;;;5017467;28;20053;-73
2023/06/16 14:03:12;;;;;;;12.63;4.93;;;;;;;;;;5020358;28;20054;-74
2023/06/16 14:05:40;;;;;;;8.35;4.28;;;;;;;;;;5019518;28;20053;-73
2023/06/16 14:08:06;;;;;;;4.88;4.38;;;;;;;;;;5019100;28;20148;-74
2023/06/16 14:10:32;;;;;;;7.05;4.57;;;;;;;;;;5018255;28;20138;-74
2023/06/16 14:12:58;;;;;;;7.25;4.70;;;;;;;;;;5019504;28;20056;-75
2023/06/16 14:15:24;;;;;;;8.18;5.18;;;;;;;;;;5017885;28;20136;-73
2023/06/16 14:17:49;;;;;;;7.22;5.15;;;;;;;;;;5019595;28;20578;-74
2023/06/16 14:20:15;;;;;;;10.13;5.15;;;;;;;;;;5016960;28;20046;-73
2023/06/16 14:22:41;;;;;;;9.35;5.18;;;;;;;;;;5019010;28;20079;-73
2023/06/16 14:25:08;;;;;;;6.85;5.35;;;;;;;;;;5018929;28;20069;-72
2023/06/16 14:27:35;;;;;;;8.48;5.45;;;;;;;;;;5017137;28;20103;-72
2023/06/16 14:30:06;;;;;;;8.20;5.13;;;;;;;;;;5020059;28;20080;-71
2023/06/16 14:32:36;;;;;;;7.10;5.27;;;;;;;;;;5017134;28;20079;-70
2023/06/16 14:35:02;;;;;;;9.48;5.50;;;;;;;;;;5018342;28;20049;-72
2023/06/16 14:37:28;;;;;;;5.93;5.22;;;;;;;;;;5017427;28;20045;-69
2023/06/16 14:39:53;;;;;;;10.23;5.35;;;;;;;;;;5019054;28;20040;-70
2023/06/16 14:42:19;;;;;;;14.10;4.78;;;;;;;;;;5018534;28;20037;-69
2023/06/16 14:44:44;;;;;;;8.32;4.85;;;;;;;;;;5018775;28;20450;-70
2023/06/16 14:47:11;;;;;;;7.40;4.68;;;;;;;;;;5019046;28;20056;-71